Time;durP1;ratioP1;P1;durP2;ratioP2;P2;SDS_P1;SDS_P2;PMS_P1;PMS_P2;Temp;Humidity;BMP_temperature;BMP_pressure;BME280_temperature;BME280_humidity;BME280_pressure;Samples;Min_cycle;Max_cycle;Signal;HPM_P1;HPM_P2
2023/12/18 05:05:10;;;;;;;0.40;0.40;;;0.30;99.90;;;;;;6190649;23;20197;31
2023/12/18 05:07:36;;;;;;;0.90;0.90;;;0.30;99.90;;;;;;4954656;28;20575;-63
2023/12/18 05:10:02;;;;;;;0.93;0.93;;;0.30;99.90;;;;;;4955520;29;20169;-63
2023/12/18 05:12:27;;;;;;;0.40;0.40;;;0.30;99.90;;;;;;4956845;29;20173;-63
2023/12/18 05:14:53;;;;;;;0.40;0.40;;;0.30;99.90;;;;;;4956346;29;20172;-64
2023/12/18 05:17:18;;;;;;;0.40;0.40;;;0.30;99.90;;;;;;4956747;28;20169;-64
2023/12/18 05:19:44;;;;;;;0.40;0.40;;;0.20;99.90;;;;;;4956734;29;20179;-63
2023/12/18 05:22:09;;;;;;;0.40;0.40;;;0.20;99.90;;;;;;4956609;29;20584;-64
2023/12/18 05:24:35;;;;;;;0.40;0.40;;;0.20;99.90;;;;;;4954937;29;20177;-64
2023/12/18 05:27:01;;;;;;;0.40;0.40;;;0.20;99.90;;;;;;4956287;29;20522;-63
2023/12/18 05:29:26;;;;;;;0.47;0.47;;;0.20;99.90;;;;;;4956500;29;20244;-64
2023/12/18 05:31:52;;;;;;;0.40;0.40;;;0.10;99.90;;;;;;4956505;29;20248;-64
2023/12/18 05:34:17;;;;;;;0.40;0.40;;;0.10;99.90;;;;;;4956038;29;20176;-64
2023/12/18 05:36:43;;;;;;;0.40;0.40;;;0.10;99.90;;;;;;4955232;28;20195;-64
2023/12/18 05:39:08;;;;;;;0.60;0.60;;;0.10;99.90;;;;;;4956382;29;20200;-64
2023/12/18 05:41:34;;;;;;;0.50;0.50;;;0.10;99.90;;;;;;4956400;29;20169;-64
2023/12/18 05:44:00;;;;;;;0.50;0.50;;;0.10;99.90;;;;;;4956188;29;20165;-64
2023/12/18 05:46:25;;;;;;;0.50;0.50;;;0.10;99.90;;;;;;4955907;29;20588;-64
2023/12/18 05:48:51;;;;;;;0.60;0.60;;;0.10;99.90;;;;;;4956166;29;20207;-64
2023/12/18 05:51:22;;;;;;;0.40;0.40;;;0.00;99.90;;;;;;4956026;29;20172;-64
2023/12/18 05:53:48;;;;;;;0.40;0.40;;;0.00;99.90;;;;;;4956181;28;20518;-64
2023/12/18 05:56:14;;;;;;;0.40;0.40;;;0.00;99.90;;;;;;4955497;29;20192;-63
2023/12/18 05:58:40;;;;;;;0.38;0.38;;;0.00;99.90;;;;;;4954790;29;20515;-64
2023/12/18 06:01:06;;;;;;;0.50;0.50;;;0.00;99.90;;;;;;4954678;28;20312;-65
2023/12/18 06:03:32;;;;;;;0.43;0.43;;;0.00;99.90;;;;;;4956037;29;20168;-64
2023/12/18 06:05:57;;;;;;;0.90;0.87;;;0.00;99.90;;;;;;4954946;29;20428;-65
2023/12/18 06:08:23;;;;;;;0.40;0.40;;;0.00;99.90;;;;;;4955521;29;20201;-66
2023/12/18 06:10:49;;;;;;;0.50;0.50;;;0.00;99.90;;;;;;4955679;28;20223;-64
2023/12/18 06:13:14;;;;;;;0.40;0.40;;;0.00;99.90;;;;;;4954126;29;20560;-65
2023/12/18 06:15:40;;;;;;;0.50;0.50;;;-0.10;99.90;;;;;;4955156;29;20242;-65
2023/12/18 06:18:05;;;;;;;0.40;0.40;;;-0.10;99.90;;;;;;4955431;29;20177;-66
2023/12/18 06:20:31;;;;;;;0.40;0.40;;;-0.10;99.90;;;;;;4954852;29;20525;-66
2023/12/18 06:22:57;;;;;;;0.40;0.40;;;0.00;99.90;;;;;;4954049;29;20637;-65
2023/12/18 06:25:23;;;;;;;0.50;0.50;;;-0.10;99.90;;;;;;4954952;29;20289;-65
2023/12/18 06:27:48;;;;;;;0.40;0.40;;;0.00;99.90;;;;;;4955496;28;20189;-65
2023/12/18 06:30:15;;;;;;;0.83;0.83;;;-0.10;99.90;;;;;;4955400;29;20176;-66
2023/12/18 06:32:41;;;;;;;0.40;0.40;;;-0.10;99.90;;;;;;4954688;28;20239;-65
2023/12/18 06:35:07;;;;;;;0.50;0.50;;;-0.10;99.90;;;;;;4954843;28;20688;-66
2023/12/18 06:37:33;;;;;;;0.40;0.40;;;-0.10;99.90;;;;;;4955074;28;20420;-66
2023/12/18 06:40:00;;;;;;;0.98;0.98;;;-0.10;99.90;;;;;;4954854;28;20325;-65
2023/12/18 06:42:25;;;;;;;0.40;0.40;;;0.00;99.90;;;;;;4954007;28;20208;-65
2023/12/18 06:44:51;;;;;;;0.40;0.40;;;0.00;99.90;;;;;;4954665;29;20412;-65
2023/12/18 06:47:16;;;;;;;0.40;0.40;;;0.10;99.90;;;;;;4950461;29;20217;-66
2023/12/18 06:49:42;;;;;;;0.30;0.30;;;0.10;99.90;;;;;;4939352;29;20637;-66
2023/12/18 06:52:08;;;;;;;0.40;0.40;;;0.10;99.90;;;;;;4954328;29;20204;-66
2023/12/18 06:54:34;;;;;;;0.40;0.40;;;0.10;99.90;;;;;;4954759;29;20192;-66
2023/12/18 06:57:01;;;;;;;0.30;0.30;;;0.10;99.90;;;;;;4953526;29;20947;-66
2023/12/18 06:59:27;;;;;;;0.40;0.40;;;0.10;99.90;;;;;;4955158;29;20175;-66
2023/12/18 07:01:52;;;;;;;0.50;0.50;;;0.00;99.90;;;;;;4954800;29;20250;-65
2023/12/18 07:04:18;;;;;;;0.40;0.40;;;0.00;99.90;;;;;;4954580;29;20184;-66
2023/12/18 07:06:44;;;;;;;0.40;0.40;;;0.00;99.90;;;;;;4954877;28;20731;-65
2023/12/18 07:09:09;;;;;;;0.40;0.40;;;0.00;99.90;;;;;;4954493;28;20459;-66
2023/12/18 07:11:35;;;;;;;0.40;0.40;;;0.00;99.90;;;;;;4955600;28;20175;-66
2023/12/18 07:14:00;;;;;;;0.30;0.30;;;0.00;99.90;;;;;;4958755;29;20168;-65
2023/12/18 07:16:26;;;;;;;0.40;0.40;;;0.00;99.90;;;;;;4957979;29;20206;-65
2023/12/18 07:18:53;;;;;;;0.40;0.40;;;0.00;99.90;;;;;;4958643;29;20612;-66
2023/12/18 07:21:19;;;;;;;0.40;0.40;;;-0.10;99.90;;;;;;4958349;28;20564;-66
2023/12/18 07:23:44;;;;;;;0.50;0.50;;;-0.10;99.90;;;;;;4958570;29;20252;-66
2023/12/18 07:26:12;;;;;;;0.40;0.40;;;-0.10;99.90;;;;;;4958285;29;20540;-65
2023/12/18 07:28:39;;;;;;;0.40;0.40;;;-0.10;99.90;;;;;;4958737;28;20197;-66
2023/12/18 07:31:05;;;;;;;0.40;0.40;;;-0.10;99.90;;;;;;4958421;28;20192;-66
2023/12/18 07:33:30;;;;;;;0.60;0.60;;;-0.10;99.90;;;;;;4958758;29;20671;-66
2023/12/18 07:35:56;;;;;;;0.40;0.40;;;0.00;99.90;;;;;;4957846;29;20275;-66
2023/12/18 07:38:21;;;;;;;0.40;0.40;;;0.10;99.90;;;;;;4958479;29;20175;-66
2023/12/18 07:40:48;;;;;;;0.40;0.40;;;0.20;99.90;;;;;;4958534;29;20177;-66
2023/12/18 07:43:14;;;;;;;0.68;0.68;;;0.40;99.90;;;;;;4957189;29;20180;-65
2023/12/18 07:45:39;;;;;;;0.40;0.40;;;0.50;99.90;;;;;;4957892;29;20195;-66
2023/12/18 07:48:05;;;;;;;0.50;0.50;;;0.60;99.90;;;;;;4957801;29;20200;-64
2023/12/18 07:50:31;;;;;;;0.50;0.50;;;0.80;99.90;;;;;;4958201;28;20172;-64
2023/12/18 07:52:56;;;;;;;0.40;0.40;;;0.90;99.90;;;;;;4958314;29;20177;-64
2023/12/18 07:55:22;;;;;;;0.30;0.30;;;0.90;99.90;;;;;;4957490;29;20196;-66
2023/12/18 07:57:47;;;;;;;0.40;0.40;;;1.00;99.90;;;;;;4957633;29;20176;-65
2023/12/18 08:00:13;;;;;;;0.50;0.50;;;1.00;99.90;;;;;;4957819;29;20708;-65
2023/12/18 08:02:39;;;;;;;0.30;0.30;;;1.10;99.90;;;;;;4957551;28;20656;-65
2023/12/18 08:05:05;;;;;;;0.40;0.40;;;1.10;99.90;;;;;;4957651;28;20187;-65
2023/12/18 08:07:31;;;;;;;0.40;0.40;;;1.20;99.90;;;;;;4957426;28;20464;-65
2023/12/18 08:09:57;;;;;;;0.40;0.40;;;1.30;99.90;;;;;;4956346;29;20499;-66
2023/12/18 08:12:22;;;;;;;0.40;0.40;;;1.50;99.90;;;;;;4957530;28;20904;-65
2023/12/18 08:14:48;;;;;;;0.30;0.30;;;1.70;99.90;;;;;;4957587;28;20176;-65
2023/12/18 08:17:15;;;;;;;0.40;0.40;;;2.00;99.90;;;;;;4957611;28;20671;-66
2023/12/18 08:19:48;;;;;;;0.40;0.40;;;2.30;99.90;;;;;;4957773;28;20174;-66
2023/12/18 08:22:14;;;;;;;0.35;0.35;;;2.80;99.90;;;;;;4957629;28;20201;-67
2023/12/18 08:24:41;;;;;;;0.60;0.60;;;3.40;99.90;;;;;;4956263;28;20183;-65
2023/12/18 08:27:06;;;;;;;0.45;0.45;;;4.10;99.90;;;;;;4957466;28;20665;-66
2023/12/18 08:29:32;;;;;;;0.40;0.40;;;4.80;99.90;;;;;;4957630;28;20228;-66
2023/12/18 08:31:58;;;;;;;0.40;0.40;;;5.60;99.90;;;;;;4957612;28;20220;-67
2023/12/18 08:34:24;;;;;;;0.30;0.30;;;6.30;99.90;;;;;;4957234;28;20176;-67
2023/12/18 08:36:50;;;;;;;0.30;0.30;;;6.60;99.90;;;;;;4957371;28;20225;-66
2023/12/18 08:39:15;;;;;;;0.30;0.30;;;6.90;99.90;;;;;;4957586;28;20201;-67
2023/12/18 08:41:43;;;;;;;0.30;0.20;;;7.20;99.90;;;;;;4957305;28;20220;-66
2023/12/18 08:44:10;;;;;;;2.63;0.87;;;7.50;99.90;;;;;;4957326;28;20176;-67
2023/12/18 08:46:35;;;;;;;0.30;0.30;;;8.00;99.90;;;;;;4956945;28;20423;-68
2023/12/18 08:49:01;;;;;;;0.60;0.60;;;8.40;99.90;;;;;;4955871;29;20510;-67
2023/12/18 08:51:27;;;;;;;0.30;0.23;;;8.80;99.90;;;;;;4956078;29;20413;-67
2023/12/18 08:53:54;;;;;;;0.30;0.20;;;8.90;99.90;;;;;;4957891;28;20267;-68
2023/12/18 08:56:20;;;;;;;0.30;0.20;;;9.10;99.90;;;;;;4956713;28;20209;-66
2023/12/18 08:58:46;;;;;;;0.30;0.23;;;9.30;99.90;;;;;;4957588;28;20424;-66
2023/12/18 09:01:11;;;;;;;0.53;0.53;;;9.60;99.90;;;;;;4957313;28;20741;-66
2023/12/18 09:03:37;;;;;;;0.30;0.30;;;10.00;99.90;;;;;;4957116;28;20183;-67
2023/12/18 09:06:03;;;;;;;0.50;0.50;;;10.30;99.90;;;;;;4956377;28;20211;-68
2023/12/18 09:08:31;;;;;;;0.80;0.80;;;10.60;99.90;;;;;;4957095;28;20207;-66
2023/12/18 09:10:57;;;;;;;0.40;0.40;;;10.80;99.90;;;;;;4957471;28;20495;-68
2023/12/18 09:13:22;;;;;;;0.80;0.80;;;11.10;99.90;;;;;;4956869;28;20467;-67
2023/12/18 09:15:48;;;;;;;0.30;0.30;;;11.50;99.90;;;;;;4956359;28;20775;-66
2023/12/18 09:18:13;;;;;;;0.37;0.37;;;11.90;99.90;;;;;;4956842;28;20263;-68
2023/12/18 09:20:40;;;;;;;0.30;0.20;;;12.30;99.90;;;;;;4956073;28;20177;-66
2023/12/18 09:23:08;;;;;;;0.37;0.37;;;12.70;99.90;;;;;;4956480;28;20216;-65
2023/12/18 09:25:34;;;;;;;0.30;0.30;;;13.00;99.90;;;;;;4955731;28;20922;-67
2023/12/18 09:27:59;;;;;;;0.40;0.40;;;13.10;99.30;;;;;;4955909;28;20499;-67
2023/12/18 09:30:25;;;;;;;0.47;0.47;;;13.20;99.90;;;;;;4956081;28;20516;-66
2023/12/18 09:32:51;;;;;;;0.40;0.40;;;13.10;99.90;;;;;;4956181;28;20173;-65
2023/12/18 09:35:16;;;;;;;0.50;0.50;;;13.10;99.90;;;;;;4955563;28;20276;-67
2023/12/18 09:37:42;;;;;;;0.40;0.40;;;13.10;99.90;;;;;;4956412;28;20252;-66
2023/12/18 09:40:08;;;;;;;2.80;0.93;;;13.20;99.90;;;;;;4956121;28;20176;-66
2023/12/18 09:42:33;;;;;;;0.50;0.40;;;13.10;99.90;;;;;;4956060;28;20192;-68
2023/12/18 09:45:02;;;;;;;1.10;0.83;;;13.00;99.90;;;;;;4955283;28;20425;-66
2023/12/18 09:47:27;;;;;;;0.90;0.40;;;13.00;99.90;;;;;;4956453;28;20193;-68
2023/12/18 09:49:54;;;;;;;0.50;0.50;;;13.10;99.90;;;;;;4955907;28;20404;-67
2023/12/18 09:52:22;;;;;;;0.30;0.30;;;13.10;99.90;;;;;;4956008;28;20173;-68
2023/12/18 09:54:52;;;;;;;0.40;0.40;;;13.30;99.90;;;;;;4955601;28;20379;-66
2023/12/18 09:57:19;;;;;;;0.90;0.80;;;13.50;99.90;;;;;;4954905;29;20395;-67
2023/12/18 09:59:46;;;;;;;1.87;1.70;;;13.80;99.20;;;;;;4955800;28;20387;-67
2023/12/18 10:02:12;;;;;;;0.33;0.33;;;13.80;99.50;;;;;;4954563;29;20395;-68
2023/12/18 10:04:42;;;;;;;0.50;0.50;;;13.80;98.70;;;;;;4955539;28;20450;-67
2023/12/18 10:07:07;;;;;;;1.43;0.90;;;13.80;98.00;;;;;;4955388;28;20852;-67
2023/12/18 10:09:35;;;;;;;0.50;0.50;;;13.70;99.20;;;;;;4955926;29;20399;-66
2023/12/18 10:12:03;;;;;;;0.40;0.40;;;13.70;97.90;;;;;;4955687;28;20214;-68
2023/12/18 10:14:29;;;;;;;0.50;0.50;;;13.60;98.00;;;;;;4955101;28;20409;-68
2023/12/18 10:16:55;;;;;;;0.30;0.20;;;13.40;97.70;;;;;;4955472;28;20442;-66
2023/12/18 10:19:24;;;;;;;0.53;0.53;;;13.40;99.20;;;;;;4955686;28;20470;-67
2023/12/18 10:21:49;;;;;;;0.77;0.40;;;13.40;99.10;;;;;;4955623;28;20383;-67
2023/12/18 10:24:15;;;;;;;0.30;0.30;;;13.30;98.20;;;;;;4955803;29;20382;-65
2023/12/18 10:26:41;;;;;;;0.30;0.30;;;13.20;98.30;;;;;;4955450;28;20276;-69
2023/12/18 10:29:07;;;;;;;0.60;0.60;;;13.10;98.40;;;;;;4955354;28;20573;-67
2023/12/18 10:31:34;;;;;;;0.73;0.73;;;13.10;99.00;;;;;;4955568;28;20413;-66
2023/12/18 10:34:02;;;;;;;0.50;0.50;;;13.10;99.90;;;;;;4954976;29;20495;-68
2023/12/18 10:36:32;;;;;;;0.30;0.30;;;13.20;99.70;;;;;;4955012;28;20463;-66
2023/12/18 10:39:00;;;;;;;0.47;0.47;;;13.10;99.70;;;;;;4955332;28;20971;-66
2023/12/18 10:41:30;;;;;;;0.43;0.43;;;13.10;99.90;;;;;;4954031;29;20415;-66
2023/12/18 10:43:56;;;;;;;0.83;0.83;;;12.90;98.50;;;;;;4955461;28;20418;-66
2023/12/18 10:46:24;;;;;;;0.30;0.20;;;12.60;98.10;;;;;;4954131;28;20986;-67
2023/12/18 10:48:52;;;;;;;0.90;0.90;;;12.50;99.90;;;;;;4955157;28;20409;-66
2023/12/18 10:51:20;;;;;;;0.47;0.47;;;12.40;99.90;;;;;;4955424;28;20396;-65
2023/12/18 10:53:48;;;;;;;0.80;0.77;;;12.50;99.90;;;;;;4955263;28;20413;-66
2023/12/18 10:56:16;;;;;;;4.00;1.33;;;12.60;99.90;;;;;;4954589;28;20442;-67
2023/12/18 10:58:43;;;;;;;0.43;0.43;;;12.50;99.90;;;;;;4954899;28;20471;-67
2023/12/18 11:01:09;;;;;;;0.47;0.47;;;12.40;99.90;;;;;;4955319;28;20379;-66
2023/12/18 11:03:36;;;;;;;0.73;0.60;;;12.30;99.90;;;;;;4955179;29;20412;-68
2023/12/18 11:06:02;;;;;;;0.73;0.73;;;12.30;99.90;;;;;;4954445;28;20779;-68
2023/12/18 11:08:28;;;;;;;0.30;0.30;;;12.20;99.90;;;;;;4955038;29;20386;-68
2023/12/18 11:10:58;;;;;;;0.47;0.47;;;11.90;99.70;;;;;;4954947;29;20816;-67
2023/12/18 11:13:27;;;;;;;0.30;0.30;;;11.20;99.50;;;;;;4955045;28;20459;-67
2023/12/18 11:16:05;;;;;;;0.37;0.37;;;10.10;99.80;;;;;;4954221;28;20444;-65
2023/12/18 11:19:09;;;;;;;0.90;0.90;;;9.20;99.90;;;;;;4955100;28;20454;-67
2023/12/18 11:21:34;;;;;;;0.30;0.30;;;8.50;99.90;;;;;;4955083;28;20922;-67
2023/12/18 11:24:02;;;;;;;0.30;0.30;;;8.00;99.90;;;;;;4954854;28;20401;-67
2023/12/18 11:26:30;;;;;;;0.30;0.30;;;7.70;99.90;;;;;;4954305;28;20270;-66
2023/12/18 11:28:58;;;;;;;0.55;0.55;;;7.50;99.90;;;;;;4939171;29;20510;-66
2023/12/18 11:31:23;;;;;;;0.30;0.30;;;7.30;99.90;;;;;;4935757;29;20175;-65
2023/12/18 11:34:03;;;;;;;0.33;0.33;;;7.30;99.90;;;;;;4935458;29;20174;-66
2023/12/18 11:36:29;;;;;;;0.45;0.45;;;7.30;99.90;;;;;;4935072;29;20197;-66
2023/12/18 11:38:56;;;;;;;0.43;0.43;;;7.40;99.90;;;;;;4935483;29;20197;-68
2023/12/18 11:41:44;;;;;;;0.30;0.30;;;7.40;99.90;;;;;;4935654;29;20406;-67
2023/12/18 11:44:13;;;;;;;0.35;0.35;;;7.40;99.90;;;;;;4935892;29;20180;-66
2023/12/18 11:46:40;;;;;;;0.50;0.50;;;7.40;99.90;;;;;;4937608;29;20591;-66
2023/12/18 11:49:07;;;;;;;0.45;0.45;;;7.30;99.90;;;;;;4954394;28;20185;-67
2023/12/18 11:51:33;;;;;;;0.30;0.30;;;7.30;99.90;;;;;;4954969;28;20209;-65
2023/12/18 11:54:02;;;;;;;1.02;0.68;;;7.40;99.90;;;;;;4954657;28;20253;-65
2023/12/18 11:56:37;;;;;;;0.40;0.40;;;7.30;99.90;;;;;;4952985;29;20208;-68
2023/12/18 11:59:02;;;;;;;0.30;0.30;;;7.30;99.90;;;;;;4957676;28;20230;-68
2023/12/18 12:01:29;;;;;;;0.30;0.30;;;7.30;99.90;;;;;;4958240;28;20165;-65
2023/12/18 12:03:57;;;;;;;0.40;0.40;;;7.30;99.90;;;;;;4957760;28;20412;-65
2023/12/18 12:06:24;;;;;;;0.40;0.40;;;7.40;99.90;;;;;;4957342;28;20672;-66
2023/12/18 12:08:50;;;;;;;0.30;0.30;;;7.50;99.90;;;;;;4957839;28;20271;-67
2023/12/18 12:11:19;;;;;;;0.30;0.30;;;7.60;99.90;;;;;;4957679;28;20179;-66
2023/12/18 12:13:47;;;;;;;0.30;0.30;;;7.50;99.90;;;;;;4957651;28;20192;-65
2023/12/18 12:16:19;;;;;;;0.30;0.30;;;7.50;99.90;;;;;;4957019;28;20240;-67
2023/12/18 12:18:54;;;;;;;0.30;0.30;;;7.60;99.90;;;;;;4957628;28;20232;-66
2023/12/18 12:21:21;;;;;;;0.30;0.30;;;7.50;99.90;;;;;;4957687;28;20161;-63
2023/12/18 12:23:47;;;;;;;0.30;0.30;;;7.60;99.90;;;;;;4957269;28;20197;-64
2023/12/18 12:26:18;;;;;;;0.32;0.32;;;7.60;99.90;;;;;;4957277;28;20193;-68
2023/12/18 12:28:44;;;;;;;0.85;0.85;;;7.60;99.90;;;;;;4957786;28;20183;-66
2023/12/18 12:31:10;;;;;;;0.50;0.50;;;7.70;99.90;;;;;;4957429;28;20172;-65
2023/12/18 12:33:42;;;;;;;0.30;0.30;;;7.70;99.90;;;;;;4957300;28;20636;-65
2023/12/18 12:36:08;;;;;;;0.30;0.30;;;7.80;99.90;;;;;;4957167;28;20458;-65
2023/12/18 12:38:39;;;;;;;0.50;0.50;;;7.80;99.90;;;;;;4957209;28;20565;-66
2023/12/18 12:41:05;;;;;;;0.40;0.40;;;7.80;99.90;;;;;;4957192;28;20165;-65
2023/12/18 12:43:31;;;;;;;0.50;0.50;;;7.80;99.90;;;;;;4957132;28;20227;-64
2023/12/18 12:45:57;;;;;;;0.30;0.30;;;7.90;99.90;;;;;;4956441;29;20212;-65
2023/12/18 12:48:23;;;;;;;0.50;0.50;;;7.90;99.90;;;;;;4957321;28;20181;-68
2023/12/18 12:50:50;;;;;;;0.30;0.30;;;7.90;99.90;;;;;;4957052;28;20421;-67
2023/12/18 12:53:15;;;;;;;0.30;0.30;;;8.00;99.90;;;;;;4955533;29;20201;-66
2023/12/18 12:55:42;;;;;;;0.30;0.30;;;8.00;99.90;;;;;;4956502;29;20585;-65
2023/12/18 12:58:09;;;;;;;0.75;0.75;;;8.10;99.90;;;;;;4956559;28;20441;-64
2023/12/18 13:00:35;;;;;;;0.30;0.30;;;8.10;99.90;;;;;;4956637;28;20173;-66
2023/12/18 13:03:01;;;;;;;0.30;0.20;;;8.10;99.90;;;;;;4956660;28;20180;-67
2023/12/18 13:05:27;;;;;;;0.93;0.93;;;8.10;99.90;;;;;;4956124;28;20581;-67
2023/12/18 13:07:55;;;;;;;0.30;0.30;;;8.20;99.90;;;;;;4957090;29;20220;-66
2023/12/18 13:10:28;;;;;;;0.40;0.40;;;8.20;99.90;;;;;;4956230;28;20180;-65
2023/12/18 13:12:55;;;;;;;0.30;0.30;;;8.30;99.90;;;;;;4957372;28;20233;-66
2023/12/18 13:15:21;;;;;;;0.30;0.30;;;8.30;99.90;;;;;;4956443;28;20196;-69
2023/12/18 13:17:47;;;;;;;0.40;0.40;;;8.40;99.90;;;;;;4956736;29;20687;-65
2023/12/18 13:20:15;;;;;;;0.30;0.30;;;8.40;99.90;;;;;;4957094;28;20177;-66
2023/12/18 13:22:40;;;;;;;0.30;0.30;;;8.40;99.90;;;;;;4956651;28;20195;-67
2023/12/18 13:25:06;;;;;;;0.30;0.30;;;8.40;99.90;;;;;;4956159;29;20637;-64
2023/12/18 13:27:32;;;;;;;0.30;0.30;;;8.50;99.90;;;;;;4956750;28;20558;-64
2023/12/18 13:29:57;;;;;;;0.30;0.30;;;8.60;99.90;;;;;;4956580;29;20408;-69
2023/12/18 13:32:26;;;;;;;0.30;0.30;;;8.70;99.90;;;;;;4956516;29;20171;-65
2023/12/18 13:34:52;;;;;;;0.30;0.30;;;8.70;99.90;;;;;;4956038;28;20175;-67
2023/12/18 13:37:17;;;;;;;0.40;0.40;;;8.70;99.90;;;;;;4955146;29;20176;-65
2023/12/18 13:39:43;;;;;;;0.30;0.30;;;8.70;99.90;;;;;;4956320;28;20299;-67
2023/12/18 13:42:10;;;;;;;0.33;0.33;;;8.80;99.90;;;;;;4956324;28;20197;-67
2023/12/18 13:44:36;;;;;;;0.30;0.30;;;8.80;99.90;;;;;;4954816;28;20423;-67
2023/12/18 13:47:02;;;;;;;0.40;0.40;;;8.80;99.90;;;;;;4954059;29;20811;-65
2023/12/18 13:49:27;;;;;;;0.80;0.80;;;8.80;99.90;;;;;;4952953;29;20173;-67
2023/12/18 13:51:53;;;;;;;0.30;0.30;;;8.80;99.90;;;;;;4954205;29;20172;-65
2023/12/18 13:54:22;;;;;;;0.30;0.30;;;8.80;99.90;;;;;;4952572;28;20172;-67
2023/12/18 13:56:47;;;;;;;0.30;0.20;;;8.80;99.90;;;;;;4954017;29;20292;-67
2023/12/18 13:59:13;;;;;;;0.43;0.43;;;8.80;99.90;;;;;;4954426;28;20275;-66
2023/12/18 14:01:40;;;;;;;0.30;0.30;;;8.70;99.90;;;;;;4956076;29;20573;-65
2023/12/18 14:04:06;;;;;;;0.30;0.30;;;8.70;99.90;;;;;;4956143;28;20239;-65
2023/12/18 14:06:32;;;;;;;0.30;0.30;;;8.70;99.90;;;;;;4955455;28;20604;-65
2023/12/18 14:08:58;;;;;;;0.40;0.40;;;8.70;99.90;;;;;;4955892;29;20916;-66
2023/12/18 14:11:24;;;;;;;0.40;0.40;;;8.70;99.90;;;;;;4955838;28;20445;-66
2023/12/18 14:13:50;;;;;;;0.30;0.30;;;8.60;99.90;;;;;;4956016;29;20179;-65
2023/12/18 14:16:15;;;;;;;0.70;0.70;;;8.60;99.90;;;;;;4955456;29;20527;-64
2023/12/18 14:18:41;;;;;;;0.30;0.20;;;8.60;99.90;;;;;;4955812;28;20199;-66
2023/12/18 14:21:07;;;;;;;0.30;0.30;;;8.60;99.90;;;;;;4954811;28;20169;-66
2023/12/18 14:23:32;;;;;;;0.30;0.30;;;8.70;99.90;;;;;;4955748;29;20229;-64
2023/12/18 14:25:58;;;;;;;0.57;0.57;;;8.60;99.90;;;;;;4955141;29;20185;-66
2023/12/18 14:28:24;;;;;;;0.30;0.30;;;8.60;99.90;;;;;;4955410;28;20172;-66
2023/12/18 14:30:50;;;;;;;0.30;0.30;;;8.50;99.90;;;;;;4954138;29;20416;-64
2023/12/18 14:33:16;;;;;;;0.30;0.30;;;8.50;99.90;;;;;;4955728;28;20187;-65
2023/12/18 14:35:44;;;;;;;0.40;0.40;;;8.50;99.90;;;;;;4955008;28;20196;-64
2023/12/18 14:38:10;;;;;;;0.30;0.28;;;8.50;99.90;;;;;;4955486;28;20447;-66
2023/12/18 14:40:36;;;;;;;0.60;0.60;;;8.40;99.90;;;;;;4954100;29;20181;-63
2023/12/18 14:43:01;;;;;;;0.30;0.30;;;8.40;99.90;;;;;;4955509;29;20417;-67
2023/12/18 14:45:27;;;;;;;0.30;0.30;;;8.40;99.90;;;;;;4955117;29;20196;-66
2023/12/18 14:47:53;;;;;;;1.90;1.53;;;8.30;99.90;;;;;;4955337;29;20180;-65
2023/12/18 14:50:18;;;;;;;0.30;0.30;;;8.30;99.90;;;;;;4955234;29;20196;-66
2023/12/18 14:52:44;;;;;;;0.30;0.30;;;8.30;99.90;;;;;;4955236;29;20177;-65
2023/12/18 14:55:09;;;;;;;0.53;0.53;;;8.30;99.90;;;;;;4954809;29;20668;-65
2023/12/18 14:57:36;;;;;;;0.30;0.30;;;8.20;99.90;;;;;;4953803;29;20283;-66
2023/12/18 15:00:04;;;;;;;0.35;0.35;;;8.20;99.90;;;;;;4955242;28;20263;-67
2023/12/18 15:02:30;;;;;;;0.32;0.32;;;8.20;99.90;;;;;;4953972;29;20173;-67
2023/12/18 15:04:55;;;;;;;0.37;0.37;;;8.10;99.90;;;;;;4954905;29;20180;-64
2023/12/18 15:07:21;;;;;;;0.30;0.30;;;8.00;99.90;;;;;;4955127;29;20184;-65
2023/12/18 15:09:47;;;;;;;0.30;0.30;;;8.00;99.90;;;;;;4954998;29;20594;-66
2023/12/18 15:12:14;;;;;;;0.30;0.30;;;7.90;99.90;;;;;;4955294;29;20181;-65
2023/12/18 15:14:39;;;;;;;0.30;0.30;;;7.90;99.90;;;;;;4954965;28;20289;-66
2023/12/18 15:17:05;;;;;;;0.30;0.30;;;7.80;99.90;;;;;;4954934;28;20277;-65
2023/12/18 15:19:33;;;;;;;0.60;0.60;;;7.70;99.90;;;;;;4955155;29;20168;-66
2023/12/18 15:22:00;;;;;;;0.50;0.50;;;7.60;99.90;;;;;;4955121;28;20649;-66
2023/12/18 15:24:25;;;;;;;0.52;0.52;;;7.50;99.90;;;;;;4954707;28;20207;-65
2023/12/18 15:26:51;;;;;;;0.30;0.30;;;7.50;99.90;;;;;;4954983;28;20250;-65
2023/12/18 15:29:17;;;;;;;0.30;0.30;;;7.40;99.90;;;;;;4955068;28;20192;-64
2023/12/18 15:31:43;;;;;;;0.30;0.30;;;7.40;99.90;;;;;;4955196;28;20216;-67
2023/12/18 15:34:09;;;;;;;0.43;0.43;;;7.30;99.90;;;;;;4957170;29;20413;-66
2023/12/18 15:36:34;;;;;;;0.30;0.30;;;7.20;99.90;;;;;;4958496;28;20734;-64
2023/12/18 15:39:00;;;;;;;0.30;0.30;;;7.10;99.90;;;;;;4958698;29;20812;-66
2023/12/18 15:41:29;;;;;;;0.50;0.50;;;7.10;99.90;;;;;;4958640;28;20183;-65
2023/12/18 15:43:55;;;;;;;0.50;0.50;;;7.00;99.90;;;;;;4958510;28;20867;-64
2023/12/18 15:46:20;;;;;;;0.43;0.43;;;6.90;99.90;;;;;;4958230;28;20192;-65
2023/12/18 15:48:46;;;;;;;0.30;0.30;;;6.80;99.90;;;;;;4958265;29;20208;-66
2023/12/18 15:51:12;;;;;;;0.30;0.30;;;6.70;99.90;;;;;;4958197;29;20177;-65
2023/12/18 15:53:39;;;;;;;0.50;0.50;;;6.70;99.90;;;;;;4956955;29;20266;-65
2023/12/18 15:56:05;;;;;;;0.32;0.32;;;6.70;99.90;;;;;;4958057;28;20606;-65
2023/12/18 15:58:31;;;;;;;0.40;0.40;;;6.70;99.90;;;;;;4958374;28;20205;-66
2023/12/18 16:00:56;;;;;;;0.40;0.40;;;6.60;99.90;;;;;;4958100;29;20231;-64
2023/12/18 16:03:22;;;;;;;0.30;0.30;;;6.60;99.90;;;;;;4958191;28;20587;-65
2023/12/18 16:05:48;;;;;;;0.40;0.40;;;6.50;99.90;;;;;;4957607;29;20278;-66
2023/12/18 16:08:13;;;;;;;0.30;0.30;;;6.50;99.90;;;;;;4957356;29;20216;-66
2023/12/18 16:10:39;;;;;;;0.30;0.30;;;6.40;99.90;;;;;;4957656;28;20219;-65
2023/12/18 16:13:05;;;;;;;0.40;0.40;;;6.40;99.90;;;;;;4957937;29;20180;-64
2023/12/18 16:15:31;;;;;;;0.30;0.30;;;6.30;99.90;;;;;;4956303;29;20202;-66
2023/12/18 16:17:56;;;;;;;0.33;0.33;;;6.30;99.90;;;;;;4957465;29;20271;-65
2023/12/18 16:20:22;;;;;;;0.30;0.30;;;6.10;99.90;;;;;;4957655;29;20269;-65
2023/12/18 16:22:47;;;;;;;0.37;0.37;;;6.00;99.90;;;;;;4956436;29;20176;-65
2023/12/18 16:25:13;;;;;;;0.40;0.40;;;5.90;99.90;;;;;;4957455;28;20235;-64
2023/12/18 16:27:39;;;;;;;0.40;0.40;;;5.90;99.90;;;;;;4957572;28;20187;-66
2023/12/18 16:30:05;;;;;;;0.60;0.60;;;5.70;99.90;;;;;;4972552;28;20184;-65
2023/12/18 16:32:30;;;;;;;0.40;0.40;;;5.60;99.90;;;;;;4957728;28;20549;-67
2023/12/18 16:34:56;;;;;;;0.40;0.40;;;5.50;99.90;;;;;;4957444;29;20175;-67
2023/12/18 16:37:22;;;;;;;0.40;0.40;;;5.50;99.90;;;;;;4958137;29;20180;-64
2023/12/18 16:39:48;;;;;;;0.30;0.30;;;5.40;99.90;;;;;;4958369;29;20655;-66
2023/12/18 16:42:14;;;;;;;0.30;0.30;;;5.40;99.90;;;;;;4957353;29;20248;-65
2023/12/18 16:44:40;;;;;;;0.30;0.30;;;5.30;99.90;;;;;;4956253;28;20590;-66
2023/12/18 16:47:07;;;;;;;0.40;0.40;;;5.20;99.90;;;;;;4957133;28;20619;-66
2023/12/18 16:49:32;;;;;;;0.38;0.38;;;5.20;99.90;;;;;;4972031;28;20172;-66
2023/12/18 16:51:58;;;;;;;0.30;0.30;;;5.20;99.90;;;;;;4957087;29;20195;-67
2023/12/18 16:54:24;;;;;;;2.17;0.97;;;5.10;99.90;;;;;;4957154;28;20249;-66
2023/12/18 16:56:51;;;;;;;0.30;0.30;;;5.10;99.90;;;;;;4956771;28;20219;-66
2023/12/18 16:59:18;;;;;;;0.47;0.47;;;5.00;99.90;;;;;;4957115;28;20798;-65
2023/12/18 17:01:47;;;;;;;0.52;0.52;;;5.00;99.90;;;;;;4955643;28;20581;-65
2023/12/18 17:04:14;;;;;;;0.98;0.93;;;5.00;99.90;;;;;;4955428;29;20596;-65
2023/12/18 17:06:39;;;;;;;2.45;2.35;;;5.00;99.90;;;;;;4956644;28;20211;-66
2023/12/18 17:09:05;;;;;;;0.30;0.30;;;4.90;99.90;;;;;;4956593;28;20192;-64
2023/12/18 17:11:31;;;;;;;0.40;0.40;;;4.90;99.90;;;;;;4956710;28;20187;-64
2023/12/18 17:13:57;;;;;;;0.40;0.40;;;4.90;99.90;;;;;;4956603;28;20173;-66
2023/12/18 17:16:22;;;;;;;0.30;0.30;;;4.90;99.90;;;;;;4956058;28;20531;-65
2023/12/18 17:18:48;;;;;;;0.40;0.40;;;4.80;99.90;;;;;;4956489;28;20202;-66
2023/12/18 17:21:14;;;;;;;0.40;0.40;;;4.80;99.90;;;;;;4956693;28;20182;-65
2023/12/18 17:23:40;;;;;;;0.40;0.40;;;4.80;99.90;;;;;;4956781;28;20178;-63
2023/12/18 17:26:05;;;;;;;1.17;0.60;;;4.70;99.90;;;;;;4956037;28;20196;-64
2023/12/18 17:28:32;;;;;;;2.23;1.33;;;4.60;99.90;;;;;;4956517;28;20192;-65
2023/12/18 17:30:58;;;;;;;0.40;0.40;;;4.60;99.90;;;;;;4956124;28;20247;-65
2023/12/18 17:33:24;;;;;;;0.70;0.70;;;4.50;99.90;;;;;;4956100;28;20180;-66
2023/12/18 17:35:53;;;;;;;0.30;0.30;;;4.50;99.90;;;;;;4955618;28;20435;-65
2023/12/18 17:38:24;;;;;;;0.32;0.32;;;4.40;99.90;;;;;;4956071;28;20201;-64
2023/12/18 17:40:50;;;;;;;0.40;0.40;;;4.40;99.90;;;;;;4956109;28;20177;-65
2023/12/18 17:43:16;;;;;;;0.40;0.40;;;4.30;99.90;;;;;;4955914;28;20571;-65
2023/12/18 17:45:43;;;;;;;0.30;0.30;;;4.30;99.90;;;;;;4955713;28;20230;-64
2023/12/18 17:48:09;;;;;;;0.32;0.32;;;4.20;99.90;;;;;;4955970;28;20215;-66
2023/12/18 17:50:35;;;;;;;0.30;0.30;;;4.20;99.90;;;;;;4955764;28;20177;-67
2023/12/18 17:53:00;;;;;;;0.40;0.40;;;4.20;99.90;;;;;;4956319;28;20438;-65
2023/12/18 17:55:27;;;;;;;0.50;0.50;;;4.10;99.90;;;;;;4955431;28;20257;-65